createdAt,value
2022-08-18T00:01:22.541Z,71.58
2022-08-18T00:03:55.902Z,72.04
2022-08-18T00:06:28.369Z,71.68
2022-08-18T00:08:59.995Z,71.71
2022-08-18T00:11:41.044Z,72.11
2022-08-18T00:14:14.592Z,72.06
2022-08-18T00:16:52.058Z,72.12
2022-08-18T00:19:20.621Z,72.15
2022-08-18T00:22:09.160Z,71.90
2022-08-18T00:24:48.086Z,71.69
2022-08-18T00:27:23.302Z,71.89
2022-08-18T00:29:54.611Z,72.19
2022-08-18T00:32:25.279Z,71.95
2022-08-18T00:34:54.387Z,71.65
2022-08-18T00:37:23.724Z,71.28
2022-08-18T00:39:54.466Z,71.54
2022-08-18T00:42:29.907Z,71.62
2022-08-18T00:45:01.905Z,71.90
2022-08-18T00:47:42.078Z,71.62
2022-08-18T00:50:17.542Z,72.02
2022-08-18T00:52:50.633Z,72.02
2022-08-18T00:55:23.480Z,71.83
2022-08-18T00:57:55.410Z,72.23
2022-08-18T01:00:24.026Z,72.21
2022-08-18T01:02:57.746Z,72.28
2022-08-18T01:05:34.029Z,72.46
2022-08-18T01:08:03.059Z,72.18
2022-08-18T01:10:35.411Z,71.75
2022-08-18T01:13:03.850Z,71.81
2022-08-18T01:15:32.162Z,71.30
2022-08-18T01:18:23.435Z,71.94
2022-08-18T01:21:17.096Z,72.25
2022-08-18T01:23:48.815Z,72.31
2022-08-18T01:26:18.262Z,71.96
2022-08-18T01:28:49.605Z,72.33
2022-08-18T01:31:37.971Z,72.17
2022-08-18T01:34:07.689Z,72.49
2022-08-18T01:36:38.533Z,71.87
2022-08-18T01:39:10.354Z,71.61
2022-08-18T01:41:40.937Z,72.18
2022-08-18T01:44:11.739Z,72.04
2022-08-18T01:46:42.978Z,72.11
2022-08-18T01:49:13.447Z,71.79
2022-08-18T01:51:42.857Z,71.87
2022-08-18T01:54:15.993Z,72.18
2022-08-18T01:56:44.805Z,72.46
2022-08-18T01:59:14.889Z,72.34
2022-08-18T02:01:49.547Z,72.15
2022-08-18T02:04:40.571Z,71.79
2022-08-18T02:07:11.745Z,72.08
2022-08-18T02:09:43.689Z,71.97
2022-08-18T02:12:12.681Z,71.96
2022-08-18T02:14:41.373Z,72.22
2022-08-18T02:17:12.661Z,72.20
2022-08-18T02:19:44.116Z,72.08
2022-08-18T02:22:15.445Z,71.97
2022-08-18T02:24:45.843Z,71.97
2022-08-18T02:27:16.328Z,71.66
2022-08-18T02:29:44.845Z,71.57
2022-08-18T02:32:13.189Z,71.81
2022-08-18T02:34:42.978Z,71.71
2022-08-18T02:37:15.002Z,72.16
2022-08-18T02:39:45.340Z,72.31
2022-08-18T02:42:16.497Z,72.52
2022-08-18T02:44:44.961Z,72.78
2022-08-18T02:47:13.278Z,72.46
2022-08-18T02:49:41.653Z,72.24
2022-08-18T02:52:10.479Z,72.49
2022-08-18T02:54:39.236Z,72.47
2022-08-18T02:57:10.767Z,72.32
2022-08-18T02:59:40.161Z,72.35
2022-08-18T03:02:10.317Z,72.53
2022-08-18T03:04:38.837Z,72.58
2022-08-18T03:07:08.785Z,72.79
2022-08-18T03:09:37.613Z,72.68
2022-08-18T03:12:07.368Z,72.52
2022-08-18T03:14:40.154Z,72.47
2022-08-18T03:17:09.807Z,72.56
2022-08-18T03:19:38.657Z,72.62
2022-08-18T03:22:28.112Z,72.46
2022-08-18T03:24:57.837Z,72.62
2022-08-18T03:27:26.634Z,72.91
2022-08-18T03:29:56.622Z,73.13
2022-08-18T03:32:27.075Z,72.99
2022-08-18T03:34:55.468Z,72.95
2022-08-18T03:37:23.741Z,73.02
2022-08-18T03:39:53.040Z,73.22
2022-08-18T03:42:21.357Z,72.73
2022-08-18T03:44:49.563Z,72.50
2022-08-18T03:47:19.499Z,72.79
2022-08-18T03:49:49.014Z,73.01
2022-08-18T03:52:17.378Z,73.09
2022-08-18T03:54:45.667Z,72.99
2022-08-18T03:57:14.614Z,72.98
2022-08-18T03:59:43.815Z,72.92
2022-08-18T04:02:13.036Z,73.06
2022-08-18T04:04:43.240Z,72.89
2022-08-18T04:07:17.337Z,72.76
2022-08-18T04:09:47.135Z,72.82
2022-08-18T04:12:17.655Z,73.03
2022-08-18T04:14:49.484Z,72.97
2022-08-18T04:17:20.438Z,72.85
2022-08-18T04:19:50.257Z,72.82
2022-08-18T04:22:18.672Z,72.88
2022-08-18T04:24:49.759Z,72.99
2022-08-18T04:27:19.359Z,72.98
2022-08-18T04:29:47.947Z,72.59
2022-08-18T04:32:16.265Z,72.60
2022-08-18T04:34:44.709Z,72.63
2022-08-18T04:37:15.633Z,72.45
2022-08-18T04:39:44.669Z,72.45
2022-08-18T04:42:13.098Z,72.79
2022-08-18T04:44:41.857Z,72.74
2022-08-18T04:47:10.933Z,72.83
2022-08-18T04:49:39.314Z,72.97
2022-08-18T04:52:39.716Z,73.17
2022-08-18T04:55:12.313Z,73.32
2022-08-18T04:57:42.642Z,73.13
2022-08-18T05:00:12.684Z,73.23
2022-08-18T05:02:41.117Z,73.23
2022-08-18T05:05:10.210Z,73.39
2022-08-18T05:07:38.469Z,72.96
2022-08-18T05:10:07.373Z,72.96
2022-08-18T05:12:37.041Z,72.93
2022-08-18T05:15:06.708Z,72.83
2022-08-18T05:17:39.763Z,73.34
2022-08-18T05:20:10.552Z,74.00
2022-08-18T05:22:40.876Z,74.41
2022-08-18T05:25:10.834Z,74.52
2022-08-18T05:27:43.826Z,74.47
2022-08-18T05:30:14.669Z,74.45
2022-08-18T05:32:48.418Z,74.30
2022-08-18T05:35:23.439Z,74.31
2022-08-18T05:38:08.028Z,74.41
2022-08-18T05:40:37.322Z,74.15
2022-08-18T05:43:08.689Z,74.29
2022-08-18T05:45:37.268Z,74.25
2022-08-18T05:48:05.739Z,74.29
2022-08-18T05:50:37.287Z,74.51
2022-08-18T05:53:13.424Z,74.54
2022-08-18T05:56:05.606Z,74.77
2022-08-18T05:58:40.565Z,74.76
2022-08-18T06:01:16.085Z,74.76
2022-08-18T06:03:49.026Z,74.96
2022-08-18T06:06:21.657Z,74.84
2022-08-18T06:08:57.738Z,74.90
2022-08-18T06:11:27.001Z,74.99
2022-08-18T06:13:59.845Z,74.98
2022-08-18T06:16:44.717Z,74.73
2022-08-18T06:19:28.289Z,74.98
2022-08-18T06:22:04.748Z,74.98
2022-08-18T06:24:40.611Z,75.07
2022-08-18T06:27:14.938Z,75.13
2022-08-18T06:30:04.625Z,75.04
2022-08-18T06:32:46.890Z,75.25
2022-08-18T06:35:25.803Z,75.07
2022-08-18T06:38:28.362Z,74.89
2022-08-18T06:41:03.118Z,74.74
2022-08-18T06:43:34.391Z,74.68
2022-08-18T06:46:09.077Z,74.70
2022-08-18T06:48:48.217Z,74.53
2022-08-18T06:51:21.287Z,74.49
2022-08-18T06:53:56.455Z,73.83
2022-08-18T06:56:28.989Z,73.82
2022-08-18T06:59:16.175Z,73.46
2022-08-18T07:01:48.664Z,73.64
2022-08-18T07:04:33.889Z,73.47
2022-08-18T07:07:14.944Z,73.66
2022-08-18T07:09:43.299Z,74.29
2022-08-18T07:12:19.936Z,74.31
2022-08-18T07:14:50.939Z,74.27
2022-08-18T07:17:43.605Z,74.08
2022-08-18T07:20:21.609Z,74.55
2022-08-18T07:22:54.746Z,75.08
2022-08-18T07:25:26.251Z,74.99
2022-08-18T07:27:56.827Z,74.86
2022-08-18T07:30:32.572Z,74.69
2022-08-18T07:33:15.066Z,74.44
2022-08-18T07:35:49.287Z,74.09
2022-08-18T07:38:44.332Z,73.95
2022-08-18T07:41:20.494Z,73.85
2022-08-18T07:44:01.261Z,73.28
2022-08-18T07:46:37.605Z,72.38
2022-08-18T07:49:07.861Z,72.32
2022-08-18T07:51:47.861Z,71.45
2022-08-18T07:54:50.622Z,71.64
2022-08-18T07:57:30.765Z,71.26
2022-08-18T08:00:18.652Z,70.97
2022-08-18T08:03:13.712Z,71.30
2022-08-18T08:05:52.536Z,70.97
2022-08-18T08:08:26.463Z,71.10
2022-08-18T08:11:16.934Z,71.05
2022-08-18T08:13:57.667Z,71.68
2022-08-18T08:16:37.441Z,72.55
2022-08-18T08:19:31.511Z,72.82
2022-08-18T08:22:17.983Z,72.50
2022-08-18T08:24:54.798Z,72.60
2022-08-18T08:27:36.117Z,72.66
2022-08-18T08:30:08.741Z,72.62
2022-08-18T08:32:44.466Z,72.90
2022-08-18T08:35:16.239Z,71.49
2022-08-18T08:38:38.665Z,70.95
2022-08-18T08:41:06.797Z,71.19
2022-08-18T08:43:39.362Z,69.68
2022-08-18T08:46:14.430Z,69.57
2022-08-18T08:48:47.197Z,70.62
2022-08-18T08:51:36.263Z,70.70
2022-08-18T08:54:12.264Z,69.77
2022-08-18T08:56:45.778Z,69.75
2022-08-18T08:59:17.214Z,69.11
2022-08-18T09:01:53.078Z,67.99
2022-08-18T09:04:33.009Z,68.33
2022-08-18T09:07:17.055Z,68.56
2022-08-18T09:10:08.978Z,69.24
2022-08-18T09:12:56.242Z,69.75
2022-08-18T09:15:43.478Z,70.17
2022-08-18T09:18:28.150Z,69.69
2022-08-18T09:21:12.463Z,69.37
2022-08-18T09:23:46.379Z,68.48
2022-08-18T09:26:39.752Z,68.44
2022-08-18T09:29:21.950Z,68.05
2022-08-18T09:31:51.188Z,68.40
2022-08-18T09:34:40.323Z,67.73
2022-08-18T09:37:21.466Z,67.26
2022-08-18T09:40:19.548Z,67.61
2022-08-18T09:42:58.204Z,67.57
2022-08-18T09:45:55.594Z,67.96
2022-08-18T09:48:30.572Z,67.35
2022-08-18T09:51:33.921Z,67.92
2022-08-18T09:54:21.565Z,67.21
2022-08-18T09:57:24.482Z,66.81
2022-08-18T09:59:57.648Z,67.29
2022-08-18T10:03:08.578Z,67.33
2022-08-18T10:05:37.242Z,67.59
2022-08-18T10:08:42.790Z,67.56
2022-08-18T10:11:32.254Z,67.47
2022-08-18T10:14:24.704Z,67.68
2022-08-18T10:17:23.579Z,67.73
2022-08-18T10:19:59.213Z,68.42
2022-08-18T10:22:41.103Z,68.17
2022-08-18T10:25:22.717Z,67.65
2022-08-18T10:27:56.647Z,67.78
2022-08-18T10:34:01.811Z,66.67
2022-08-18T10:36:43.398Z,65.79
2022-08-18T10:39:13.718Z,65.01
2022-08-18T10:41:56.948Z,62.98
2022-08-18T10:44:30.937Z,62.26
2022-08-18T10:47:02.181Z,61.89
2022-08-18T10:49:34.155Z,61.51
2022-08-18T10:52:29.419Z,61.24
2022-08-18T10:55:11.335Z,61.22
2022-08-18T10:58:02.841Z,61.02
2022-08-18T11:00:49.635Z,60.87
2022-08-18T11:03:51.603Z,60.71
2022-08-18T11:06:26.842Z,61.32
2022-08-18T11:09:03.597Z,59.75
2022-08-18T11:11:42.087Z,60.21
2022-08-18T11:14:35.501Z,60.30
2022-08-18T11:17:14.118Z,59.78
2022-08-18T11:19:47.465Z,59.82
2022-08-18T11:22:31.577Z,59.56
2022-08-18T11:25:03.284Z,58.62
2022-08-18T11:27:36.466Z,57.36
2022-08-18T11:30:07.744Z,56.36
2022-08-18T11:35:35.513Z,56.29
2022-08-18T11:38:13.634Z,55.99
2022-08-18T11:43:46.775Z,55.57
2022-08-18T11:49:24.094Z,54.53
2022-08-18T11:52:03.327Z,54.54
2022-08-18T11:54:50.981Z,54.31
2022-08-18T11:57:30.522Z,54.35
2022-08-18T12:00:00.418Z,54.51
2022-08-18T12:02:29.331Z,55.14
2022-08-18T12:05:08.497Z,55.65
2022-08-18T12:07:46.321Z,55.88
2022-08-18T12:10:29.710Z,56.02
2022-08-18T12:13:00.613Z,56.29
2022-08-18T12:15:44.203Z,55.73
2022-08-18T12:18:28.066Z,56.09
2022-08-18T12:20:58.957Z,56.61
2022-08-18T12:23:28.103Z,57.36
2022-08-18T12:26:27.320Z,56.54
2022-08-18T12:29:01.475Z,56.45
2022-08-18T12:31:42.043Z,57.65
2022-08-18T12:34:17.918Z,57.85
2022-08-18T12:36:55.858Z,57.89
2022-08-18T12:39:24.977Z,57.41
2022-08-18T12:41:54.769Z,57.45
2022-08-18T12:44:23.173Z,57.39
2022-08-18T12:46:56.191Z,56.87
2022-08-18T12:49:26.464Z,56.98
2022-08-18T12:51:55.773Z,58.18
2022-08-18T12:57:33.282Z,58.23
2022-08-18T13:00:15.359Z,58.88
2022-08-18T13:02:48.087Z,59.34
2022-08-18T13:05:17.653Z,59.96
2022-08-18T13:07:55.317Z,60.47
2022-08-18T13:10:45.772Z,60.39
2022-08-18T13:13:17.280Z,61.16
2022-08-18T13:15:55.410Z,61.05
2022-08-18T13:18:28.795Z,59.85
2022-08-18T13:20:58.353Z,59.69
2022-08-18T13:23:28.623Z,59.86
2022-08-18T13:26:01.427Z,59.78
2022-08-18T13:28:36.138Z,60.44
2022-08-18T13:31:18.266Z,59.28
2022-08-18T13:33:56.806Z,59.02
2022-08-18T13:36:28.882Z,58.40
2022-08-18T13:38:57.591Z,58.23
2022-08-18T13:43:57.022Z,57.68
2022-08-18T13:46:31.290Z,57.66
2022-08-18T13:49:03.022Z,57.51
2022-08-18T13:51:32.163Z,57.94
2022-08-18T13:54:30.449Z,58.27
2022-08-18T13:56:51.914Z,57.86
2022-08-18T13:59:23.856Z,57.64
2022-08-18T14:01:53.676Z,57.80
2022-08-18T14:04:27.745Z,59.50
2022-08-18T14:06:59.877Z,59.25
2022-08-18T14:09:36.419Z,60.30
2022-08-18T14:12:15.677Z,61.75
2022-08-18T14:14:53.708Z,62.75
2022-08-18T14:17:23.464Z,62.95
2022-08-18T14:20:21.207Z,63.16
2022-08-18T14:23:09.652Z,63.21
2022-08-18T14:25:56.032Z,64.28
2022-08-18T14:28:24.665Z,64.81
2022-08-18T14:30:55.722Z,65.82
2022-08-18T14:33:51.114Z,66.67
2022-08-18T14:36:18.117Z,67.16
2022-08-18T14:38:46.794Z,67.83
2022-08-18T14:41:20.502Z,68.03
2022-08-18T14:44:11.499Z,66.91
2022-08-18T14:46:54.143Z,67.18
2022-08-18T14:49:28.671Z,66.81
2022-08-18T14:51:59.052Z,66.32
2022-08-18T14:54:28.293Z,65.58
2022-08-18T14:56:57.244Z,65.45
2022-08-18T14:59:28.544Z,64.69
2022-08-18T15:01:58.233Z,64.66
2022-08-18T15:04:27.752Z,64.26
2022-08-18T15:06:57.493Z,63.87
2022-08-18T15:09:27.250Z,63.39
2022-08-18T15:11:58.522Z,63.96
2022-08-18T15:14:33.135Z,62.70
2022-08-18T15:17:13.308Z,61.57
2022-08-18T15:20:00.022Z,60.94
2022-08-18T15:22:47.814Z,59.18
2022-08-18T15:25:33.829Z,58.02
2022-08-18T15:28:02.448Z,56.44
2022-08-18T15:30:32.277Z,55.11
2022-08-18T15:33:03.207Z,54.55
2022-08-18T15:35:32.529Z,53.75
2022-08-18T15:38:05.071Z,53.85
2022-08-18T15:40:41.241Z,53.91
2022-08-18T15:43:10.586Z,53.11
2022-08-18T15:45:56.538Z,53.45
2022-08-18T15:48:29.704Z,53.00
2022-08-18T15:51:08.071Z,53.19
2022-08-18T15:53:44.905Z,52.28
2022-08-18T15:56:16.319Z,52.39
2022-08-18T15:58:49.540Z,52.18
2022-08-18T16:01:32.410Z,51.10
2022-08-18T16:04:03.314Z,50.91
2022-08-18T16:06:32.986Z,51.74
2022-08-18T16:09:02.075Z,51.16
2022-08-18T16:11:30.993Z,50.34
2022-08-18T16:14:00.092Z,50.50
2022-08-18T16:16:29.116Z,50.20
2022-08-18T16:19:07.742Z,50.09
2022-08-18T16:21:40.438Z,49.59
2022-08-18T16:24:09.941Z,49.49
2022-08-18T16:26:38.310Z,49.83
2022-08-18T16:29:07.650Z,49.19
2022-08-18T16:31:36.524Z,49.04
2022-08-18T16:34:06.713Z,47.74
2022-08-18T16:36:35.541Z,47.59
2022-08-18T16:39:03.952Z,47.43
2022-08-18T16:41:35.401Z,47.08
2022-08-18T16:44:03.674Z,46.84
2022-08-18T16:46:32.238Z,47.07
2022-08-18T16:49:01.281Z,47.49
2022-08-18T16:51:31.575Z,46.60
2022-08-18T16:53:59.784Z,46.76
2022-08-18T16:56:30.551Z,46.09
2022-08-18T16:59:16.585Z,46.29
2022-08-18T17:02:02.556Z,46.56
2022-08-18T17:04:34.381Z,46.72
2022-08-18T17:07:06.169Z,46.63
2022-08-18T17:09:36.029Z,46.73
2022-08-18T17:12:05.335Z,46.19
2022-08-18T17:14:36.955Z,45.79
2022-08-18T17:17:07.722Z,45.42
2022-08-18T17:19:37.680Z,45.59
2022-08-18T17:22:08.499Z,45.11
2022-08-18T17:24:37.828Z,46.12
2022-08-18T17:27:26.476Z,45.51
2022-08-18T17:30:05.890Z,44.94
2022-08-18T17:32:42.973Z,45.66
2022-08-18T17:35:15.898Z,45.20
2022-08-18T17:37:52.244Z,45.21
2022-08-18T17:40:28.631Z,44.85
2022-08-18T17:42:59.889Z,44.90
2022-08-18T17:45:36.112Z,44.98
2022-08-18T17:48:12.645Z,45.00
2022-08-18T17:51:03.842Z,45.81
2022-08-18T17:53:36.628Z,45.10
2022-08-18T17:56:13.335Z,45.55
2022-08-18T17:58:48.680Z,45.22
2022-08-18T18:01:19.678Z,44.99
2022-08-18T18:03:51.227Z,45.80
2022-08-18T18:06:32.633Z,45.52
2022-08-18T18:09:06.976Z,45.27
2022-08-18T18:11:41.578Z,45.41
2022-08-18T18:14:35.103Z,45.96
2022-08-18T18:17:12.741Z,46.53
2022-08-18T18:19:46.425Z,46.20
2022-08-18T18:22:21.673Z,46.33
2022-08-18T18:24:55.054Z,46.35
2022-08-18T18:27:31.557Z,46.26
2022-08-18T18:30:04.789Z,46.63
2022-08-18T18:32:39.157Z,47.28
2022-08-18T18:35:17.222Z,47.54
2022-08-18T18:37:53.464Z,46.90
2022-08-18T18:40:39.437Z,46.79
2022-08-18T18:43:29.121Z,47.28
2022-08-18T18:46:23.203Z,47.20
2022-08-18T18:49:05.069Z,47.22
2022-08-18T18:51:40.821Z,47.40
2022-08-18T18:54:23.820Z,47.04
2022-08-18T18:56:57.918Z,47.17
2022-08-18T18:59:47.409Z,47.15
2022-08-18T19:02:33.484Z,47.49
2022-08-18T19:05:16.415Z,47.48
2022-08-18T19:08:05.868Z,47.16
2022-08-18T19:10:42.819Z,48.01
2022-08-18T19:13:26.856Z,47.58
2022-08-18T19:16:23.535Z,47.73
2022-08-18T19:18:57.911Z,47.36
2022-08-18T19:22:03.969Z,48.38
2022-08-18T19:24:40.460Z,48.61
2022-08-18T19:27:23.311Z,48.48
2022-08-18T19:29:57.290Z,48.98
2022-08-18T19:32:33.976Z,49.13
2022-08-18T19:35:04.454Z,49.46
2022-08-18T19:37:54.034Z,50.65
2022-08-18T19:40:28.655Z,51.05
2022-08-18T19:43:04.697Z,51.38
2022-08-18T19:45:43.413Z,51.60
2022-08-18T19:48:20.098Z,51.70
2022-08-18T19:50:54.268Z,51.08
2022-08-18T19:53:54.747Z,51.09
2022-08-18T19:56:45.309Z,51.47
2022-08-18T19:59:55.231Z,51.57
2022-08-18T20:02:36.913Z,51.05
2022-08-18T20:05:20.575Z,50.91
2022-08-18T20:08:11.358Z,51.17
2022-08-18T20:11:08.596Z,50.96
2022-08-18T20:13:43.235Z,50.56
2022-08-18T20:16:28.545Z,50.21
2022-08-18T20:20:05.443Z,50.55
2022-08-18T20:22:42.342Z,50.59
2022-08-18T20:25:41.561Z,50.88
2022-08-18T20:28:33.683Z,51.00
2022-08-18T20:31:13.193Z,51.19
2022-08-18T20:33:47.151Z,52.98
2022-08-18T20:36:27.026Z,52.09
2022-08-18T20:38:57.772Z,51.35
2022-08-18T20:41:32.634Z,50.86
2022-08-18T20:44:28.875Z,51.00
2022-08-18T20:47:14.153Z,51.05
2022-08-18T20:49:58.470Z,51.38
2022-08-18T20:52:38.750Z,51.25
2022-08-18T20:55:17.989Z,51.01
2022-08-18T20:57:46.711Z,51.06
2022-08-18T21:00:26.722Z,51.10
2022-08-18T21:02:58.963Z,51.86
2022-08-18T21:05:29.512Z,51.11
2022-08-18T21:08:13.576Z,51.35
2022-08-18T21:10:50.478Z,51.22
2022-08-18T21:13:30.802Z,51.39
2022-08-18T21:15:59.943Z,51.34
2022-08-18T21:18:29.484Z,51.20
2022-08-18T21:21:00.213Z,51.27
2022-08-18T21:23:34.837Z,51.60
2022-08-18T21:26:08.048Z,50.57
2022-08-18T21:28:39.447Z,50.40
2022-08-18T21:31:42.727Z,50.70
2022-08-18T21:34:18.454Z,51.29
2022-08-18T21:36:52.773Z,51.14
2022-08-18T21:39:23.560Z,51.15
2022-08-18T21:41:54.732Z,50.60
2022-08-18T21:44:25.565Z,50.21
2022-08-18T21:47:05.813Z,50.32
2022-08-18T21:49:35.057Z,50.10
2022-08-18T21:52:03.336Z,50.41
2022-08-18T21:54:35.638Z,50.53
2022-08-18T21:57:24.747Z,50.26
2022-08-18T22:00:12.998Z,50.14
2022-08-18T22:02:41.358Z,50.77
2022-08-18T22:05:11.325Z,50.33
2022-08-18T22:07:47.979Z,51.00
2022-08-18T22:10:47.946Z,50.60
2022-08-18T22:13:39.509Z,50.35
2022-08-18T22:16:30.354Z,50.92
2022-08-18T22:19:12.826Z,50.73
2022-08-18T22:21:47.096Z,50.60
2022-08-18T22:24:20.477Z,50.51
2022-08-18T22:27:04.427Z,51.00
2022-08-18T22:29:45.540Z,51.76
2022-08-18T22:32:15.235Z,51.61
2022-08-18T22:34:44.047Z,51.37
2022-08-18T22:37:14.350Z,51.96
2022-08-18T22:39:47.235Z,52.00
2022-08-18T22:42:18.900Z,51.47
2022-08-18T22:44:47.362Z,51.86
2022-08-18T22:47:16.286Z,52.13
2022-08-18T22:49:45.405Z,52.75
2022-08-18T22:52:19.435Z,53.28
2022-08-18T22:54:49.574Z,53.27
2022-08-18T22:57:23.635Z,53.26
2022-08-18T22:59:52.371Z,53.40
2022-08-18T23:02:22.114Z,53.02
2022-08-18T23:04:50.628Z,52.41
2022-08-18T23:07:23.028Z,51.80
2022-08-18T23:09:51.354Z,51.66
2022-08-18T23:12:21.099Z,51.55
2022-08-18T23:14:49.757Z,50.96
2022-08-18T23:17:18.320Z,50.91
2022-08-18T23:19:46.952Z,50.84
2022-08-18T23:22:15.835Z,50.84
2022-08-18T23:24:44.175Z,50.59
2022-08-18T23:27:12.433Z,50.37
2022-08-18T23:29:42.220Z,50.45
2022-08-18T23:32:10.515Z,50.41
2022-08-18T23:34:38.840Z,50.25
2022-08-18T23:37:09.687Z,50.37
2022-08-18T23:39:39.675Z,50.00
2022-08-18T23:42:10.325Z,50.71
2022-08-18T23:44:38.970Z,50.20
2022-08-18T23:47:08.760Z,50.44
2022-08-18T23:49:38.404Z,50.07
2022-08-18T23:52:06.909Z,50.42
2022-08-18T23:54:36.444Z,50.19
2022-08-18T23:57:04.791Z,50.30
2022-08-18T23:59:33.119Z,50.56
